Time;durP1;ratioP1;P1;durP2;ratioP2;P2;SDS_P1;SDS_P2;PMS_P1;PMS_P2;Temp;Humidity;BMP_temperature;BMP_pressure;BME280_temperature;BME280_humidity;BME280_pressure;Samples;Min_cycle;Max_cycle;Signal;HPM_P1;HPM_P2
2022/09/12 00:01:21;;;;;;;33.03;6.33;;;;;;;;;;5096253;28;20456;-76
2022/09/12 00:03:50;;;;;;;24.80;6.80;;;;;;;;;;5077424;28;20436;-75
2022/09/12 00:06:27;;;;;;;23.53;6.00;;;;;;;;;;5089005;28;20485;-75
2022/09/12 00:08:55;;;;;;;8.37;5.17;;;;;;;;;;5075910;28;20441;-75
2022/09/12 00:11:22;;;;;;;23.00;6.30;;;;;;;;;;5096035;28;20455;-75
2022/09/12 00:13:49;;;;;;;26.40;7.50;;;;;;;;;;5083546;28;20424;-76
2022/09/12 00:16:23;;;;;;;11.00;6.53;;;;;;;;;;5074785;28;20514;-75
2022/09/12 00:18:50;;;;;;;49.50;8.23;;;;;;;;;;5075561;28;20865;-75
2022/09/12 00:21:17;;;;;;;20.30;6.83;;;;;;;;;;5072511;28;20452;-75
2022/09/12 00:23:43;;;;;;;16.83;6.90;;;;;;;;;;5088239;28;20456;-75
2022/09/12 00:26:10;;;;;;;20.30;6.07;;;;;;;;;;5094799;28;20462;-75
2022/09/12 00:28:37;;;;;;;8.57;5.90;;;;;;;;;;5094743;28;20454;-75
2022/09/12 00:31:05;;;;;;;11.33;6.20;;;;;;;;;;5097665;28;20451;-75
2022/09/12 00:33:32;;;;;;;10.07;6.27;;;;;;;;;;5102876;28;20419;-75
2022/09/12 00:35:59;;;;;;;17.03;6.77;;;;;;;;;;5114964;28;20469;-75
2022/09/12 00:38:25;;;;;;;17.20;5.40;;;;;;;;;;5088031;28;20471;-75
2022/09/12 00:40:52;;;;;;;19.87;6.00;;;;;;;;;;5093115;28;20452;-75
2022/09/12 00:43:38;;;;;;;19.43;5.60;;;;;;;;;;5094335;28;20430;-75
2022/09/12 00:46:24;;;;;;;12.70;5.90;;;;;;;;;;5081328;28;20931;-76
2022/09/12 00:48:54;;;;;;;32.23;6.60;;;;;;;;;;5059564;28;20458;-76
2022/09/12 00:51:21;;;;;;;21.53;6.00;;;;;;;;;;5075393;28;20571;-77
2022/09/12 00:53:49;;;;;;;34.27;6.37;;;;;;;;;;5066137;28;20438;-77
2022/09/12 00:56:17;;;;;;;53.70;8.93;;;;;;;;;;5071461;28;20824;-77
2022/09/12 00:58:50;;;;;;;46.43;9.90;;;;;;;;;;5075100;28;20424;-77
2022/09/12 01:01:16;;;;;;;32.70;8.67;;;;;;;;;;5058776;28;20455;-77
2022/09/12 01:03:43;;;;;;;40.40;8.60;;;;;;;;;;5064454;28;20516;-77
2022/09/12 01:06:15;;;;;;;28.23;8.90;;;;;;;;;;5075225;28;20522;-77
2022/09/12 01:08:42;;;;;;;16.47;8.30;;;;;;;;;;5083454;28;20498;-77
2022/09/12 01:11:10;;;;;;;11.13;7.00;;;;;;;;;;5082696;28;20483;-76
2022/09/12 01:13:36;;;;;;;44.60;19.97;;;;;;;;;;5075782;28;20453;-76
2022/09/12 01:16:04;;;;;;;27.10;16.50;;;;;;;;;;5066687;28;21007;-77
2022/09/12 01:18:40;;;;;;;18.27;11.37;;;;;;;;;;5071767;28;21024;-77
2022/09/12 01:21:07;;;;;;;32.73;9.47;;;;;;;;;;5062082;28;20445;-77
2022/09/12 01:23:52;;;;;;;21.00;6.07;;;;;;;;;;5074125;28;20421;-77
2022/09/12 01:26:28;;;;;;;4.90;4.50;;;;;;;;;;5075004;28;20472;-76
2022/09/12 01:29:14;;;;;;;11.03;4.60;;;;;;;;;;5073090;28;20885;-76
2022/09/12 01:31:47;;;;;;;10.43;5.70;;;;;;;;;;5073489;28;20452;-76
2022/09/12 01:34:19;;;;;;;16.40;5.10;;;;;;;;;;5073823;28;20528;-76
2022/09/12 01:36:56;;;;;;;22.57;4.80;;;;;;;;;;5074643;28;20476;-76
2022/09/12 01:39:26;;;;;;;16.50;5.27;;;;;;;;;;5084341;28;20404;-76
2022/09/12 01:41:53;;;;;;;15.30;5.07;;;;;;;;;;5059484;28;20817;-75
2022/09/12 01:44:23;;;;;;;9.93;5.50;;;;;;;;;;5072313;28;20468;-76
2022/09/12 01:46:49;;;;;;;15.07;4.50;;;;;;;;;;5072505;28;20849;-76
2022/09/12 01:49:22;;;;;;;11.97;4.33;;;;;;;;;;5073152;28;20796;-76
2022/09/12 01:51:58;;;;;;;11.50;4.10;;;;;;;;;;5073091;28;20967;-76
2022/09/12 01:54:29;;;;;;;24.33;5.30;;;;;;;;;;5072807;28;20435;-76
2022/09/12 01:56:57;;;;;;;44.47;5.30;;;;;;;;;;5090723;28;20457;-76
2022/09/12 01:59:23;;;;;;;13.13;4.50;;;;;;;;;;5072566;28;20924;-76
2022/09/12 02:01:57;;;;;;;26.47;4.87;;;;;;;;;;5081939;28;20439;-76
2022/09/12 02:04:26;;;;;;;12.30;4.70;;;;;;;;;;5059660;28;20470;-77
2022/09/12 02:07:01;;;;;;;20.20;4.83;;;;;;;;;;5070873;28;20436;-76
2022/09/12 02:09:31;;;;;;;30.23;6.33;;;;;;;;;;5070500;28;20413;-77
2022/09/12 02:11:59;;;;;;;22.80;6.03;;;;;;;;;;5069699;28;20448;-76
2022/09/12 02:14:35;;;;;;;18.77;5.63;;;;;;;;;;5060187;28;20436;-75
2022/09/12 02:17:08;;;;;;;11.73;5.13;;;;;;;;;;5071570;28;20452;-74
2022/09/12 02:19:43;;;;;;;13.20;4.90;;;;;;;;;;5061944;28;20543;-75
2022/09/12 02:22:12;;;;;;;14.70;4.93;;;;;;;;;;5036774;28;20456;-75
2022/09/12 02:24:41;;;;;;;70.23;7.10;;;;;;;;;;5070588;28;20425;-75
2022/09/12 02:27:13;;;;;;;27.20;6.37;;;;;;;;;;5073999;28;20425;-75
2022/09/12 02:29:40;;;;;;;13.57;4.23;;;;;;;;;;5075723;28;20524;-75
2022/09/12 02:32:14;;;;;;;27.77;5.90;;;;;;;;;;5068159;28;20833;-74
2022/09/12 02:34:51;;;;;;;49.30;5.10;;;;;;;;;;5072077;28;20417;-75
2022/09/12 02:37:31;;;;;;;9.20;4.77;;;;;;;;;;5057761;28;20464;-75
2022/09/12 02:39:58;;;;;;;18.47;5.10;;;;;;;;;;5070674;28;20416;-75
2022/09/12 02:42:24;;;;;;;14.57;4.73;;;;;;;;;;5070022;28;20437;-75
2022/09/12 02:44:52;;;;;;;18.23;5.50;;;;;;;;;;5059383;28;20445;-75
2022/09/12 02:47:22;;;;;;;22.30;5.07;;;;;;;;;;5080333;28;20835;-75
2022/09/12 02:49:49;;;;;;;21.93;5.07;;;;;;;;;;5069907;28;20425;-75
2022/09/12 02:52:15;;;;;;;14.30;4.17;;;;;;;;;;5071233;28;20442;-75
2022/09/12 02:54:42;;;;;;;23.67;5.13;;;;;;;;;;5073426;28;20425;-75
2022/09/12 02:57:19;;;;;;;18.63;5.00;;;;;;;;;;5073538;28;20448;-74
2022/09/12 02:59:49;;;;;;;21.87;6.23;;;;;;;;;;5073876;28;20420;-75
2022/09/12 03:02:15;;;;;;;10.43;5.40;;;;;;;;;;5073600;28;20431;-74
2022/09/12 03:04:54;;;;;;;19.37;6.20;;;;;;;;;;5073292;28;20437;-75
2022/09/12 03:07:30;;;;;;;12.17;5.07;;;;;;;;;;5056675;28;20493;-75
2022/09/12 03:10:00;;;;;;;8.67;5.53;;;;;;;;;;5053421;28;20432;-75
2022/09/12 03:12:45;;;;;;;15.93;5.20;;;;;;;;;;5070069;28;20966;-75
2022/09/12 03:15:12;;;;;;;70.57;9.60;;;;;;;;;;5065438;28;20436;-75
2022/09/12 03:17:44;;;;;;;18.00;6.00;;;;;;;;;;5087439;28;20460;-74
2022/09/12 03:20:16;;;;;;;27.17;6.17;;;;;;;;;;5075917;28;21016;-75
2022/09/12 03:22:54;;;;;;;22.20;6.60;;;;;;;;;;5072703;28;20527;-74
2022/09/12 03:25:24;;;;;;;11.93;5.50;;;;;;;;;;5056024;28;20523;-75
2022/09/12 03:27:55;;;;;;;15.83;7.10;;;;;;;;;;5072678;28;20519;-74
2022/09/12 03:30:21;;;;;;;13.10;7.40;;;;;;;;;;5072104;28;20867;-74
2022/09/12 03:32:49;;;;;;;6.20;5.23;;;;;;;;;;5079655;28;20788;-74
2022/09/12 03:35:18;;;;;;;26.40;7.83;;;;;;;;;;5072255;28;20443;-74
2022/09/12 03:37:49;;;;;;;31.80;10.20;;;;;;;;;;5072256;28;20505;-75
2022/09/12 03:40:15;;;;;;;21.53;8.87;;;;;;;;;;5072295;28;20960;-75
2022/09/12 03:42:42;;;;;;;35.27;8.90;;;;;;;;;;5059707;28;20958;-75
2022/09/12 03:45:08;;;;;;;31.23;8.00;;;;;;;;;;5071274;28;20432;-74
2022/09/12 03:47:35;;;;;;;42.70;8.40;;;;;;;;;;5055937;28;20979;-74
2022/09/12 03:50:02;;;;;;;15.40;5.93;;;;;;;;;;5073348;28;20435;-74
2022/09/12 03:52:29;;;;;;;22.03;5.50;;;;;;;;;;5075984;28;20778;-74
2022/09/12 03:54:55;;;;;;;10.00;5.87;;;;;;;;;;5071643;28;20806;-75
2022/09/12 03:57:22;;;;;;;12.93;5.90;;;;;;;;;;5072880;28;20463;-75
2022/09/12 03:59:51;;;;;;;30.57;6.40;;;;;;;;;;5071834;28;20425;-74
2022/09/12 04:02:18;;;;;;;18.40;6.13;;;;;;;;;;5072773;28;20781;-74
2022/09/12 04:04:46;;;;;;;19.30;4.83;;;;;;;;;;5054865;28;20436;-74
2022/09/12 04:07:14;;;;;;;7.50;5.40;;;;;;;;;;5055146;28;20497;-75
2022/09/12 04:09:40;;;;;;;14.60;5.13;;;;;;;;;;5059705;28;20454;-75
2022/09/12 04:12:06;;;;;;;15.17;6.60;;;;;;;;;;5071358;28;20452;-74
2022/09/12 04:14:33;;;;;;;32.87;7.37;;;;;;;;;;5061855;28;20796;-74
2022/09/12 04:16:59;;;;;;;18.20;6.80;;;;;;;;;;5071235;28;20461;-74
2022/09/12 04:19:26;;;;;;;16.70;6.70;;;;;;;;;;5071175;28;20436;-74
2022/09/12 04:21:53;;;;;;;28.50;6.70;;;;;;;;;;5071118;28;20457;-75
2022/09/12 04:24:19;;;;;;;12.47;6.00;;;;;;;;;;5077945;28;20439;-74
2022/09/12 04:26:46;;;;;;;20.40;7.50;;;;;;;;;;5061614;28;20432;-75
2022/09/12 04:29:13;;;;;;;18.10;7.97;;;;;;;;;;5085485;28;20428;-75
2022/09/12 04:31:40;;;;;;;11.33;6.20;;;;;;;;;;5071253;28;20456;-74
2022/09/12 04:34:07;;;;;;;46.00;8.50;;;;;;;;;;5070999;28;20440;-74
2022/09/12 04:36:34;;;;;;;25.23;7.07;;;;;;;;;;5071957;28;20432;-74
2022/09/12 04:39:01;;;;;;;24.07;9.00;;;;;;;;;;5083455;28;20430;-75
2022/09/12 04:41:32;;;;;;;25.43;8.83;;;;;;;;;;5075126;28;20450;-74
2022/09/12 04:44:03;;;;;;;11.27;6.87;;;;;;;;;;5092435;28;20420;-74
2022/09/12 04:46:30;;;;;;;44.40;9.20;;;;;;;;;;5088584;28;20428;-74
2022/09/12 04:48:57;;;;;;;18.83;6.40;;;;;;;;;;5072902;28;20436;-74
2022/09/12 04:51:26;;;;;;;43.20;8.90;;;;;;;;;;5055197;28;20458;-74
2022/09/12 04:54:00;;;;;;;17.17;6.83;;;;;;;;;;5082088;28;20835;-74
2022/09/12 04:56:27;;;;;;;15.00;5.27;;;;;;;;;;5074166;28;20425;-74
2022/09/12 04:58:58;;;;;;;15.03;6.20;;;;;;;;;;5070510;28;20461;-74
2022/09/12 05:01:25;;;;;;;11.23;5.27;;;;;;;;;;5051555;28;20515;-74
2022/09/12 05:03:51;;;;;;;13.37;7.10;;;;;;;;;;5063859;28;20474;-74
2022/09/12 05:06:22;;;;;;;35.50;8.37;;;;;;;;;;5051354;28;20433;-74
2022/09/12 05:08:50;;;;;;;29.83;6.40;;;;;;;;;;5050667;28;20438;-74
2022/09/12 05:11:17;;;;;;;29.67;7.00;;;;;;;;;;5076874;28;20451;-75
2022/09/12 05:13:50;;;;;;;16.87;6.23;;;;;;;;;;5060179;28;20450;-75
2022/09/12 05:16:17;;;;;;;14.10;6.43;;;;;;;;;;5049550;28;20460;-75
2022/09/12 05:18:45;;;;;;;19.60;7.10;;;;;;;;;;5065903;28;20451;-75
2022/09/12 05:21:13;;;;;;;25.33;7.37;;;;;;;;;;5070236;28;20552;-75
2022/09/12 05:23:40;;;;;;;33.87;7.93;;;;;;;;;;5071761;28;20794;-75
2022/09/12 05:26:07;;;;;;;20.07;6.47;;;;;;;;;;5050214;28;20440;-75
2022/09/12 05:28:34;;;;;;;27.50;7.07;;;;;;;;;;5070777;28;20789;-76
2022/09/12 05:31:07;;;;;;;24.30;7.60;;;;;;;;;;5070207;28;20505;-76
2022/09/12 05:33:35;;;;;;;18.23;6.57;;;;;;;;;;5070686;28;20431;-76
2022/09/12 05:36:02;;;;;;;26.03;7.37;;;;;;;;;;5072227;28;20463;-76
2022/09/12 05:38:28;;;;;;;18.10;6.67;;;;;;;;;;5074527;28;20820;-76
2022/09/12 05:41:02;;;;;;;16.53;6.20;;;;;;;;;;5090696;28;20452;-75
2022/09/12 05:43:29;;;;;;;25.03;7.47;;;;;;;;;;5072456;28;20440;-76
2022/09/12 05:46:07;;;;;;;17.47;6.43;;;;;;;;;;5070286;28;20443;-76
2022/09/12 05:48:35;;;;;;;24.47;6.97;;;;;;;;;;5083449;28;20847;-76
2022/09/12 05:51:05;;;;;;;35.57;8.20;;;;;;;;;;5053419;28;20837;-76
2022/09/12 05:53:32;;;;;;;42.10;7.93;;;;;;;;;;5071468;28;20436;-76
2022/09/12 05:56:03;;;;;;;38.23;7.90;;;;;;;;;;5070005;28;20436;-76
2022/09/12 05:58:29;;;;;;;27.63;5.80;;;;;;;;;;5062609;28;20471;-76
2022/09/12 06:01:00;;;;;;;42.93;7.57;;;;;;;;;;5091218;28;20806;-76
2022/09/12 06:03:26;;;;;;;9.53;5.83;;;;;;;;;;5077753;28;20490;-76
2022/09/12 06:05:53;;;;;;;17.77;5.73;;;;;;;;;;5078938;28;20427;-76
2022/09/12 06:08:19;;;;;;;5.40;4.90;;;;;;;;;;5080183;28;20447;-76
2022/09/12 06:10:46;;;;;;;17.93;6.30;;;;;;;;;;5074168;28;20456;-76
2022/09/12 06:13:12;;;;;;;6.30;4.80;;;;;;;;;;5069569;28;20432;-76
2022/09/12 06:15:39;;;;;;;15.07;5.30;;;;;;;;;;5083597;28;20451;-76
2022/09/12 06:18:05;;;;;;;11.00;4.53;;;;;;;;;;5069601;28;20468;-76
2022/09/12 06:20:35;;;;;;;12.93;4.90;;;;;;;;;;5072177;28;20479;-76
2022/09/12 06:23:01;;;;;;;11.67;6.67;;;;;;;;;;5079856;28;20437;-76
2022/09/12 06:25:28;;;;;;;8.60;5.47;;;;;;;;;;5070905;28;20420;-76
2022/09/12 06:27:54;;;;;;;12.63;6.20;;;;;;;;;;5080288;28;20796;-76
2022/09/12 06:30:21;;;;;;;15.83;6.07;;;;;;;;;;5087935;28;20457;-76
2022/09/12 06:32:50;;;;;;;14.53;6.40;;;;;;;;;;5082512;28;20527;-76
2022/09/12 06:35:17;;;;;;;10.13;6.23;;;;;;;;;;5056829;28;20437;-76
2022/09/12 06:37:44;;;;;;;19.93;7.00;;;;;;;;;;5085837;28;20467;-76
2022/09/12 06:40:11;;;;;;;11.17;6.60;;;;;;;;;;5080022;28;20451;-76
2022/09/12 06:42:37;;;;;;;29.67;6.97;;;;;;;;;;5065098;28;20436;-76
2022/09/12 06:45:04;;;;;;;9.60;5.53;;;;;;;;;;5086687;28;20440;-76
2022/09/12 06:47:31;;;;;;;8.17;5.20;;;;;;;;;;5074317;28;20439;-76
2022/09/12 06:49:58;;;;;;;16.90;6.50;;;;;;;;;;5056448;28;20440;-76
2022/09/12 06:52:24;;;;;;;19.83;7.13;;;;;;;;;;5073029;28;20424;-76
2022/09/12 06:54:50;;;;;;;18.23;6.30;;;;;;;;;;5056262;28;20944;-76
2022/09/12 06:57:17;;;;;;;22.10;5.93;;;;;;;;;;5073172;28;20812;-76
2022/09/12 06:59:43;;;;;;;19.87;7.47;;;;;;;;;;5053128;28;20429;-76
2022/09/12 07:02:11;;;;;;;11.87;7.40;;;;;;;;;;5080763;28;20964;-76
2022/09/12 07:04:37;;;;;;;12.00;6.57;;;;;;;;;;5056248;28;20433;-76
2022/09/12 07:07:04;;;;;;;16.63;6.63;;;;;;;;;;5056408;28;20546;-76
2022/09/12 07:09:31;;;;;;;14.80;8.13;;;;;;;;;;5078488;28;20965;-76
2022/09/12 07:11:57;;;;;;;7.00;6.30;;;;;;;;;;5093082;28;20998;-76
2022/09/12 07:14:24;;;;;;;8.20;6.77;;;;;;;;;;5058627;28;20437;-74
2022/09/12 07:16:51;;;;;;;15.50;7.80;;;;;;;;;;5066673;28;20426;-75
2022/09/12 07:19:17;;;;;;;22.07;8.97;;;;;;;;;;5072430;28;20514;-74
2022/09/12 07:21:44;;;;;;;10.27;7.37;;;;;;;;;;5073751;28;20523;-74
2022/09/12 07:24:11;;;;;;;26.60;7.63;;;;;;;;;;5071434;28;20891;-74
2022/09/12 07:26:38;;;;;;;23.83;6.67;;;;;;;;;;5072465;28;20421;-74
2022/09/12 07:29:05;;;;;;;18.00;8.37;;;;;;;;;;5072449;28;20480;-74
2022/09/12 07:31:52;;;;;;;9.87;8.53;;;;;;;;;;5061037;28;20461;-75
2022/09/12 07:34:18;;;;;;;18.83;7.70;;;;;;;;;;5083409;28;20791;-74
2022/09/12 07:36:45;;;;;;;10.00;7.27;;;;;;;;;;5055582;28;20740;-74
2022/09/12 07:39:11;;;;;;;8.93;7.90;;;;;;;;;;5054893;28;20464;-74
2022/09/12 07:41:38;;;;;;;16.33;8.93;;;;;;;;;;5073601;28;20972;-75
2022/09/12 07:44:06;;;;;;;10.70;8.23;;;;;;;;;;5081801;28;20931;-74
2022/09/12 07:46:32;;;;;;;9.60;8.03;;;;;;;;;;5075389;28;20794;-74
2022/09/12 07:48:59;;;;;;;13.00;10.50;;;;;;;;;;5072082;28;20438;-74
2022/09/12 07:51:27;;;;;;;11.83;6.60;;;;;;;;;;5071945;28;20949;-75
2022/09/12 07:53:55;;;;;;;9.63;8.73;;;;;;;;;;5077979;28;20536;-74
2022/09/12 07:56:21;;;;;;;9.97;8.97;;;;;;;;;;5069762;28;20441;-74
2022/09/12 07:58:55;;;;;;;18.97;9.10;;;;;;;;;;5071925;28;20448;-75
2022/09/12 08:01:22;;;;;;;10.27;9.27;;;;;;;;;;5058220;28;20444;-74
2022/09/12 08:03:52;;;;;;;11.17;8.60;;;;;;;;;;5076195;28;20520;-74
2022/09/12 08:06:20;;;;;;;11.23;9.53;;;;;;;;;;5090184;28;20432;-74
2022/09/12 08:08:47;;;;;;;17.07;9.07;;;;;;;;;;5080048;28;20432;-75
2022/09/12 08:11:14;;;;;;;9.80;8.63;;;;;;;;;;5077655;28;20913;-75
2022/09/12 08:13:41;;;;;;;9.80;8.37;;;;;;;;;;5064607;28;20437;-74
2022/09/12 08:16:12;;;;;;;11.63;10.27;;;;;;;;;;5058171;28;20447;-74
2022/09/12 08:18:39;;;;;;;16.70;8.83;;;;;;;;;;5071388;28;20475;-76
2022/09/12 08:21:07;;;;;;;12.60;9.50;;;;;;;;;;5055400;28;20459;-76
2022/09/12 08:23:34;;;;;;;11.73;9.30;;;;;;;;;;5071810;28;20443;-76
2022/09/12 08:26:02;;;;;;;12.57;9.50;;;;;;;;;;5055023;28;20440;-77
2022/09/12 08:28:33;;;;;;;11.80;10.00;;;;;;;;;;5055541;28;20425;-76
2022/09/12 08:31:04;;;;;;;10.70;9.50;;;;;;;;;;5071973;28;20457;-77
2022/09/12 08:33:34;;;;;;;9.87;8.87;;;;;;;;;;5054932;28;20492;-77
2022/09/12 08:36:03;;;;;;;10.57;9.30;;;;;;;;;;5071443;28;20428;-76
2022/09/12 08:38:29;;;;;;;13.17;10.73;;;;;;;;;;5071446;28;20464;-77
2022/09/12 08:41:02;;;;;;;12.70;10.20;;;;;;;;;;5061051;28;20911;-77
2022/09/12 08:43:29;;;;;;;11.17;10.07;;;;;;;;;;5083053;28;20468;-76
2022/09/12 08:46:01;;;;;;;12.93;10.73;;;;;;;;;;5065968;28;20961;-76
2022/09/12 08:48:28;;;;;;;10.83;9.70;;;;;;;;;;5074855;28;20421;-76
2022/09/12 08:50:54;;;;;;;11.40;10.20;;;;;;;;;;5071128;28;20444;-76
2022/09/12 08:53:22;;;;;;;13.97;10.63;;;;;;;;;;5070968;28;20425;-75
2022/09/12 08:55:53;;;;;;;12.23;11.03;;;;;;;;;;5075093;28;20445;-75
2022/09/12 08:58:21;;;;;;;12.60;11.30;;;;;;;;;;5083988;28;20845;-74
2022/09/12 09:01:03;;;;;;;12.10;10.40;;;;;;;;;;5071894;28;20463;-74
2022/09/12 09:03:36;;;;;;;10.50;9.10;;;;;;;;;;5060573;28;20421;-75
2022/09/12 09:06:10;;;;;;;11.07;9.97;;;;;;;;;;5070446;28;20432;-75
2022/09/12 09:08:45;;;;;;;11.90;10.40;;;;;;;;;;5070579;28;20990;-75
2022/09/12 09:11:22;;;;;;;9.53;8.63;;;;;;;;;;5073638;28;20467;-75
2022/09/12 09:16:42;;;;;;;11.00;9.93;;;;;;;;;;5060151;28;20461;-75
2022/09/12 09:19:20;;;;;;;12.93;9.00;;;;;;;;;;5067580;28;21019;-75
2022/09/12 09:21:50;;;;;;;10.27;9.17;;;;;;;;;;5074644;28;20456;-75
2022/09/12 09:24:19;;;;;;;9.40;8.60;;;;;;;;;;5080774;28;20440;-74
2022/09/12 09:26:50;;;;;;;9.93;9.03;;;;;;;;;;5077133;28;20441;-74
2022/09/12 09:29:22;;;;;;;10.87;9.77;;;;;;;;;;5057872;28;20425;-74
2022/09/12 09:31:51;;;;;;;9.00;8.20;;;;;;;;;;5083515;28;20470;-74
2022/09/12 09:34:19;;;;;;;9.10;8.30;;;;;;;;;;5078558;28;20448;-74
2022/09/12 09:36:58;;;;;;;9.40;8.63;;;;;;;;;;5079129;28;20438;-74
2022/09/12 09:39:36;;;;;;;9.47;8.57;;;;;;;;;;5054446;28;20464;-75
2022/09/12 09:42:09;;;;;;;7.87;7.10;;;;;;;;;;5070826;28;20444;-75
2022/09/12 09:44:35;;;;;;;8.23;7.43;;;;;;;;;;5083730;28;20443;-75
2022/09/12 09:47:02;;;;;;;7.60;6.80;;;;;;;;;;5070807;28;20942;-75
2022/09/12 09:49:30;;;;;;;7.40;6.70;;;;;;;;;;5050329;28;20433;-75
2022/09/12 09:51:58;;;;;;;7.47;6.70;;;;;;;;;;5071206;28;20448;-75
2022/09/12 09:54:48;;;;;;;6.80;6.10;;;;;;;;;;5073369;28;21025;-74
2022/09/12 09:57:35;;;;;;;6.93;6.33;;;;;;;;;;5080196;28;20439;-75
2022/09/12 10:00:20;;;;;;;6.60;6.10;;;;;;;;;;5069570;28;20542;-75
2022/09/12 10:02:59;;;;;;;7.87;6.33;;;;;;;;;;5075060;28;20447;-75
2022/09/12 10:05:27;;;;;;;7.13;6.53;;;;;;;;;;5085180;28;20442;-75
2022/09/12 10:07:54;;;;;;;6.50;5.93;;;;;;;;;;5075696;28;21058;-75
2022/09/12 10:10:24;;;;;;;6.10;5.60;;;;;;;;;;5075345;28;20911;-75
2022/09/12 10:13:04;;;;;;;8.37;6.20;;;;;;;;;;5076831;28;20472;-76
2022/09/12 10:15:33;;;;;;;6.70;6.20;;;;;;;;;;5076918;28;20408;-75
2022/09/12 10:18:01;;;;;;;10.77;6.30;;;;;;;;;;5087355;28;20424;-75
2022/09/12 10:20:44;;;;;;;7.20;6.40;;;;;;;;;;5074351;28;20459;-75
2022/09/12 10:23:16;;;;;;;6.30;5.40;;;;;;;;;;5074238;28;21011;-75
2022/09/12 10:25:47;;;;;;;8.00;4.77;;;;;;;;;;5075756;28;20507;-75
2022/09/12 10:28:20;;;;;;;5.53;5.03;;;;;;;;;;5058189;28;20436;-75
2022/09/12 10:30:51;;;;;;;5.80;5.30;;;;;;;;;;5061910;28;20432;-75
2022/09/12 10:33:18;;;;;;;6.37;4.83;;;;;;;;;;5053797;28;20524;-75
2022/09/12 10:35:47;;;;;;;5.63;5.13;;;;;;;;;;5073970;28;20436;-75
2022/09/12 10:38:21;;;;;;;5.77;5.17;;;;;;;;;;5073507;28;20531;-75
2022/09/12 10:40:54;;;;;;;4.87;3.77;;;;;;;;;;5073633;28;20800;-75
2022/09/12 10:43:24;;;;;;;3.73;3.47;;;;;;;;;;5057490;28;20439;-75
2022/09/12 10:45:50;;;;;;;4.83;4.43;;;;;;;;;;5074960;28;20420;-75
2022/09/12 10:48:23;;;;;;;4.63;4.07;;;;;;;;;;5086797;28;20464;-76
2022/09/12 10:50:50;;;;;;;5.63;5.13;;;;;;;;;;5067634;28;20457;-75
2022/09/12 10:53:18;;;;;;;4.00;3.70;;;;;;;;;;5075623;28;20427;-75
2022/09/12 10:56:03;;;;;;;6.03;4.63;;;;;;;;;;5074704;28;20429;-75
2022/09/12 10:58:29;;;;;;;4.93;4.43;;;;;;;;;;5061747;28;20455;-75
2022/09/12 11:01:01;;;;;;;4.47;4.07;;;;;;;;;;5073452;28;20440;-75
2022/09/12 11:03:54;;;;;;;3.53;3.30;;;;;;;;;;5073299;28;20916;-75
2022/09/12 11:06:23;;;;;;;3.30;3.00;;;;;;;;;;5046666;28;20447;-75
2022/09/12 11:08:58;;;;;;;4.27;3.87;;;;;;;;;;5073269;28;20444;-75
2022/09/12 11:11:54;;;;;;;3.53;3.23;;;;;;;;;;5060809;28;20446;-75
2022/09/12 11:14:29;;;;;;;3.03;2.83;;;;;;;;;;5006918;28;20852;-75
2022/09/12 11:17:08;;;;;;;4.33;4.03;;;;;;;;;;5073112;28;20439;-75
2022/09/12 11:19:49;;;;;;;3.90;3.37;;;;;;;;;;5061942;28;20557;-75
2022/09/12 11:22:22;;;;;;;4.00;3.43;;;;;;;;;;5078774;28;20462;-75
2022/09/12 11:25:00;;;;;;;3.40;3.20;;;;;;;;;;5059144;28;20413;-75
2022/09/12 11:27:32;;;;;;;3.50;3.20;;;;;;;;;;5075275;28;20431;-75
2022/09/12 11:30:12;;;;;;;2.87;2.67;;;;;;;;;;5080421;28;20882;-75
2022/09/12 11:32:42;;;;;;;3.20;3.00;;;;;;;;;;5083790;28;20439;-75
2022/09/12 11:35:14;;;;;;;4.67;3.27;;;;;;;;;;5072507;28;20433;-75
2022/09/12 11:37:43;;;;;;;4.00;3.63;;;;;;;;;;5072401;28;20424;-75
2022/09/12 11:40:22;;;;;;;3.23;2.93;;;;;;;;;;5072073;28;20468;-76
2022/09/12 11:42:50;;;;;;;3.80;3.50;;;;;;;;;;5071489;28;20475;-75
2022/09/12 11:45:28;;;;;;;3.90;2.90;;;;;;;;;;5086119;28;20507;-76
2022/09/12 11:47:58;;;;;;;3.33;2.87;;;;;;;;;;5085584;28;20428;-75
2022/09/12 11:50:29;;;;;;;3.10;2.80;;;;;;;;;;5063595;28;20468;-75
2022/09/12 11:53:15;;;;;;;2.40;2.20;;;;;;;;;;5078811;28;20447;-75
2022/09/12 11:55:52;;;;;;;2.90;2.70;;;;;;;;;;5060848;28;20432;-76
2022/09/12 11:58:21;;;;;;;2.63;2.43;;;;;;;;;;5085618;28;20935;-75
2022/09/12 12:00:50;;;;;;;2.50;2.30;;;;;;;;;;5087174;28;20494;-75
2022/09/12 12:03:22;;;;;;;2.73;2.53;;;;;;;;;;5079748;28;20436;-75
2022/09/12 12:06:05;;;;;;;2.57;2.37;;;;;;;;;;5080561;28;20413;-75
2022/09/12 12:08:36;;;;;;;3.40;2.60;;;;;;;;;;5082058;28;20502;-75
2022/09/12 12:11:04;;;;;;;2.80;2.60;;;;;;;;;;5085638;28;20460;-75
2022/09/12 12:13:52;;;;;;;2.80;2.60;;;;;;;;;;5076898;28;20433;-75
2022/09/12 12:16:22;;;;;;;2.40;2.20;;;;;;;;;;5076424;28;20444;-75
2022/09/12 12:18:56;;;;;;;2.67;2.47;;;;;;;;;;5076477;28;20436;-76
2022/09/12 12:21:42;;;;;;;3.10;2.90;;;;;;;;;;5083510;28;20444;-76
2022/09/12 12:24:08;;;;;;;4.10;3.30;;;;;;;;;;5085110;28;20431;-75
2022/09/12 12:26:47;;;;;;;4.10;2.97;;;;;;;;;;5084164;28;20432;-77
2022/09/12 12:29:16;;;;;;;3.73;3.33;;;;;;;;;;5062460;28;20428;-77
2022/09/12 12:32:02;;;;;;;3.50;3.23;;;;;;;;;;5078395;28;20456;-76
2022/09/12 12:34:55;;;;;;;4.33;2.83;;;;;;;;;;5055253;28;20471;-77
2022/09/12 12:37:24;;;;;;;3.17;2.97;;;;;;;;;;5062820;28;20531;-77
2022/09/12 12:40:20;;;;;;;7.53;3.20;;;;;;;;;;5058750;28;20473;-77
2022/09/12 12:42:46;;;;;;;3.30;2.60;;;;;;;;;;5081163;28;20435;-77
2022/09/12 12:45:16;;;;;;;3.23;2.97;;;;;;;;;;5068763;28;20424;-76
2022/09/12 12:47:46;;;;;;;2.77;2.57;;;;;;;;;;5086226;28;20439;-76
2022/09/12 12:50:15;;;;;;;2.63;2.43;;;;;;;;;;5079543;28;20962;-76
2022/09/12 12:52:57;;;;;;;3.00;2.70;;;;;;;;;;5091577;28;20431;-76
2022/09/12 12:55:25;;;;;;;3.00;2.80;;;;;;;;;;5069364;28;20420;-76
2022/09/12 12:57:52;;;;;;;4.90;2.93;;;;;;;;;;5077698;28;20455;-76
2022/09/12 13:00:19;;;;;;;2.90;2.70;;;;;;;;;;5066004;28;20991;-76
2022/09/12 13:02:58;;;;;;;2.77;2.57;;;;;;;;;;5084566;28;20463;-76
2022/09/12 13:05:26;;;;;;;3.07;2.87;;;;;;;;;;5072190;28;20449;-75
2022/09/12 13:08:16;;;;;;;3.43;3.23;;;;;;;;;;5072869;28;20439;-76
2022/09/12 13:10:53;;;;;;;4.63;3.27;;;;;;;;;;5064649;28;20560;-76
2022/09/12 13:13:37;;;;;;;3.60;3.30;;;;;;;;;;5081688;28;20451;-75
2022/09/12 13:16:04;;;;;;;3.90;2.67;;;;;;;;;;5084545;28;20855;-76
2022/09/12 13:18:30;;;;;;;3.50;3.20;;;;;;;;;;5084178;28;20840;-76
2022/09/12 13:21:00;;;;;;;3.00;2.10;;;;;;;;;;5085591;28;20472;-75
2022/09/12 13:23:27;;;;;;;3.53;3.00;;;;;;;;;;5085405;28;20979;-76
2022/09/12 13:25:55;;;;;;;2.60;2.37;;;;;;;;;;5061380;28;20436;-76
2022/09/12 13:28:22;;;;;;;2.70;2.50;;;;;;;;;;5076760;28;20432;-75
2022/09/12 13:31:07;;;;;;;2.93;2.73;;;;;;;;;;5083011;28;21026;-76
2022/09/12 13:33:42;;;;;;;3.00;2.70;;;;;;;;;;5089440;28;20423;-76
2022/09/12 13:36:14;;;;;;;3.03;2.83;;;;;;;;;;5090476;28;21124;-77
2022/09/12 13:38:50;;;;;;;2.70;2.50;;;;;;;;;;5051412;28;20544;-76
2022/09/12 13:41:17;;;;;;;2.77;2.57;;;;;;;;;;5034065;28;20854;-75
2022/09/12 13:43:45;;;;;;;3.20;2.90;;;;;;;;;;5034020;28;20433;-78
2022/09/12 13:46:15;;;;;;;3.07;2.87;;;;;;;;;;5069190;28;20445;-78
2022/09/12 13:48:42;;;;;;;2.70;2.50;;;;;;;;;;5035899;28;20933;-78
2022/09/12 13:51:17;;;;;;;2.93;2.73;;;;;;;;;;5069285;28;20453;-77
2022/09/12 13:53:46;;;;;;;2.70;2.50;;;;;;;;;;5069328;28;20397;-77
2022/09/12 13:56:16;;;;;;;3.27;2.60;;;;;;;;;;5068457;28;20493;-78
2022/09/12 13:58:56;;;;;;;2.77;2.50;;;;;;;;;;5052949;28;20398;-78
2022/09/12 14:01:23;;;;;;;2.83;2.63;;;;;;;;;;5053221;28;20524;-77
2022/09/12 14:06:44;;;;;;;2.90;2.70;;;;;;;;;;5060958;28;20941;-78
2022/09/12 14:09:16;;;;;;;3.17;2.87;;;;;;;;;;5072018;28;20453;-78
2022/09/12 14:11:46;;;;;;;2.50;2.30;;;;;;;;;;5081744;28;20541;-77
2022/09/12 14:14:18;;;;;;;3.30;3.00;;;;;;;;;;5092544;28;20435;-77
2022/09/12 14:16:44;;;;;;;3.00;2.70;;;;;;;;;;5093051;28;20503;-78
2022/09/12 14:19:11;;;;;;;3.40;3.10;;;;;;;;;;5092164;28;20858;-76
2022/09/12 14:21:38;;;;;;;2.73;2.53;;;;;;;;;;5092129;28;20432;-77
2022/09/12 14:24:05;;;;;;;3.23;3.03;;;;;;;;;;5092758;28;20412;-77
2022/09/12 14:26:33;;;;;;;2.50;2.30;;;;;;;;;;5080542;28;20925;-78
2022/09/12 14:29:03;;;;;;;3.80;2.80;;;;;;;;;;5073430;28;20425;-78
2022/09/12 14:31:31;;;;;;;3.10;2.90;;;;;;;;;;5085084;28;20523;-77
2022/09/12 14:34:08;;;;;;;3.37;3.17;;;;;;;;;;5062121;28;20907;-78
2022/09/12 14:36:38;;;;;;;3.40;3.10;;;;;;;;;;5076876;28;20436;-77
2022/09/12 14:39:13;;;;;;;3.60;3.10;;;;;;;;;;5055447;28;20421;-77
2022/09/12 14:41:40;;;;;;;3.03;2.70;;;;;;;;;;5074732;28;20459;-77
2022/09/12 14:44:09;;;;;;;3.80;3.50;;;;;;;;;;5082561;28;20432;-77
2022/09/12 14:46:37;;;;;;;2.63;2.43;;;;;;;;;;5069483;28;20447;-78
2022/09/12 14:49:13;;;;;;;3.87;3.57;;;;;;;;;;5087890;28;20519;-77
2022/09/12 14:51:44;;;;;;;4.80;3.30;;;;;;;;;;5082858;28;20492;-77
2022/09/12 14:54:43;;;;;;;3.60;3.30;;;;;;;;;;5083749;28;20505;-77
2022/09/12 14:57:28;;;;;;;2.90;2.70;;;;;;;;;;5073233;28;20454;-77
2022/09/12 15:00:04;;;;;;;3.67;3.37;;;;;;;;;;5081802;28;20451;-78
2022/09/12 15:02:31;;;;;;;3.23;2.93;;;;;;;;;;5082241;28;20457;-78